createdAt,value
2022-09-12T00:00:29.587Z,6.28
2022-09-12T00:01:31.649Z,6.72
2022-09-12T00:02:33.267Z,5.40
2022-09-12T00:03:35.670Z,6.85
2022-09-12T00:04:37.911Z,7.00
2022-09-12T00:05:44.538Z,6.22
2022-09-12T00:06:46.426Z,6.75
2022-09-12T00:07:47.999Z,6.88
2022-09-12T00:08:49.711Z,6.43
2022-09-12T00:09:51.171Z,6.55
2022-09-12T00:10:52.747Z,5.97
2022-09-12T00:11:54.618Z,5.90
2022-09-12T00:12:56.219Z,5.38
2022-09-12T00:14:02.599Z,5.57
2022-09-12T00:15:05.320Z,6.35
2022-09-12T00:16:19.481Z,6.75
2022-09-12T00:17:21.308Z,6.65
2022-09-12T00:18:22.778Z,7.03
2022-09-12T00:19:24.494Z,6.82
2022-09-12T00:20:25.937Z,5.55
2022-09-12T00:21:28.037Z,6.70
2022-09-12T00:22:29.786Z,5.95
2022-09-12T00:23:33.062Z,6.65
2022-09-12T00:24:34.532Z,5.30
2022-09-12T00:25:42.364Z,6.43
2022-09-12T00:26:43.794Z,6.57
2022-09-12T00:27:45.541Z,5.80
2022-09-12T00:28:47.722Z,7.97
2022-09-12T00:29:49.243Z,5.75
2022-09-12T00:30:50.720Z,5.95
2022-09-12T00:31:52.208Z,5.20
2022-09-12T00:32:54.796Z,5.82
2022-09-12T00:34:00.655Z,6.47
2022-09-12T00:35:02.850Z,7.63
2022-09-12T00:36:14.764Z,7.68
2022-09-12T00:37:16.165Z,6.03
2022-09-12T00:38:17.984Z,7.60
2022-09-12T00:39:19.820Z,6.25
2022-09-12T00:40:21.243Z,6.90
2022-09-12T00:41:29.689Z,6.47
2022-09-12T00:42:31.434Z,6.28
2022-09-12T00:43:34.831Z,6.72
2022-09-12T00:44:39.033Z,5.43
2022-09-12T00:45:42.545Z,6.00
2022-09-12T00:46:46.001Z,6.47
2022-09-12T00:47:47.958Z,5.68
2022-09-12T00:48:56.831Z,7.28
2022-09-12T00:50:05.097Z,6.60
2022-09-12T00:51:06.996Z,5.75
2022-09-12T00:52:09.830Z,5.78
2022-09-12T00:53:12.748Z,6.72
2022-09-12T00:55:26.380Z,8.27
2022-09-12T00:56:28.550Z,7.70
2022-09-12T00:57:35.628Z,6.85
2022-09-12T00:58:43.085Z,5.20
2022-09-12T00:59:54.850Z,6.63
2022-09-12T01:00:58.947Z,5.90
2022-09-12T01:02:00.906Z,6.72
2022-09-12T01:03:09.071Z,6.95
2022-09-12T01:04:13.388Z,5.63
2022-09-12T01:05:16.107Z,8.30
2022-09-12T01:06:28.816Z,5.88
2022-09-12T01:07:30.351Z,7.13
2022-09-12T01:08:33.304Z,6.30
2022-09-12T01:10:40.348Z,6.63
2022-09-12T01:11:42.654Z,8.88
2022-09-12T01:12:44.702Z,6.80
2022-09-12T01:13:47.187Z,6.00
2022-09-12T01:14:48.730Z,6.15
2022-09-12T01:15:50.299Z,6.25
2022-09-12T01:16:51.831Z,6.25
2022-09-12T01:18:08.695Z,5.50
2022-09-12T01:19:53.199Z,6.07
2022-09-12T01:21:01.323Z,7.00
2022-09-12T01:22:33.370Z,5.68
2022-09-12T01:24:13.638Z,5.93
2022-09-12T01:25:49.108Z,7.20
2022-09-12T01:27:01.842Z,6.28
2022-09-12T01:28:37.459Z,6.13
2022-09-12T01:29:59.250Z,7.82
2022-09-12T01:31:17.264Z,7.85
2022-09-12T01:32:38.002Z,7.38
2022-09-12T01:34:02.840Z,7.07
2022-09-12T01:35:23.403Z,6.80
2022-09-12T01:36:25.846Z,5.97
2022-09-12T01:37:43.018Z,7.65
2022-09-12T01:38:49.958Z,8.13
2022-09-12T01:40:16.883Z,6.70
2022-09-12T01:41:26.387Z,6.75
2022-09-12T01:43:01.905Z,6.32
2022-09-12T01:44:36.961Z,6.40
2022-09-12T01:45:47.858Z,6.50
2022-09-12T01:47:19.461Z,5.72
2022-09-12T01:48:33.512Z,8.25
2022-09-12T01:49:52.408Z,7.40
2022-09-12T01:51:11.230Z,6.78
2022-09-12T01:52:23.012Z,7.45
2022-09-12T01:53:30.941Z,5.85
2022-09-12T01:55:00.812Z,6.22
2022-09-12T01:56:15.504Z,6.93
2022-09-12T01:57:43.760Z,7.22
2022-09-12T01:58:51.333Z,6.43
2022-09-12T01:59:59.269Z,6.57
2022-09-12T02:01:13.192Z,5.82
2022-09-12T02:02:38.557Z,5.95
2022-09-12T02:03:48.329Z,6.05
2022-09-12T02:04:56.894Z,7.40
2022-09-12T02:06:08.452Z,5.55
2022-09-12T02:07:29.389Z,6.32
2022-09-12T02:08:42.789Z,5.15
2022-09-12T02:09:52.142Z,6.13
2022-09-12T02:10:59.579Z,5.63
2022-09-12T02:12:01.659Z,5.80
2022-09-12T02:13:13.213Z,6.13
2022-09-12T02:14:28.574Z,5.32
2022-09-12T02:15:38.467Z,7.80
2022-09-12T02:17:18.411Z,6.35
2022-09-12T02:18:21.258Z,5.75
2022-09-12T02:19:27.874Z,5.97
2022-09-12T02:20:47.421Z,6.82
2022-09-12T02:21:55.548Z,6.50
2022-09-12T02:22:58.257Z,6.93
2022-09-12T02:24:02.971Z,5.97
2022-09-12T02:25:09.411Z,6.20
2022-09-12T02:26:20.491Z,6.53
2022-09-12T02:27:26.844Z,7.22
2022-09-12T02:28:33.677Z,5.43
2022-09-12T02:29:35.291Z,5.80
2022-09-12T02:30:59.922Z,5.25
2022-09-12T02:32:09.390Z,5.82
2022-09-12T02:33:23.739Z,6.35
2022-09-12T02:34:51.412Z,6.20
2022-09-12T02:36:03.936Z,7.47
2022-09-12T02:37:11.410Z,5.50
2022-09-12T02:38:28.566Z,5.72
2022-09-12T02:39:30.059Z,5.00
2022-09-12T02:40:33.150Z,5.53
2022-09-12T02:41:34.982Z,6.20
2022-09-12T02:42:37.450Z,5.15
2022-09-12T02:43:39.096Z,5.70
2022-09-12T02:44:41.575Z,5.65
2022-09-12T02:45:43.292Z,5.60
2022-09-12T02:46:50.234Z,34.72
2022-09-12T02:48:09.907Z,32.72
2022-09-12T02:49:11.532Z,47.65
2022-09-12T02:50:13.732Z,27.70
2022-09-12T02:51:18.295Z,20.75
2022-09-12T02:52:23.189Z,26.98
2022-09-12T02:53:27.044Z,14.23
2022-09-12T02:54:30.322Z,10.35
2022-09-12T02:55:34.181Z,8.23
2022-09-12T02:56:36.892Z,6.68
2022-09-12T02:57:38.750Z,6.18
2022-09-12T02:58:40.378Z,6.00
2022-09-12T02:59:42.233Z,7.57
2022-09-12T03:00:58.637Z,7.25
2022-09-12T03:02:37.786Z,7.95
2022-09-12T03:03:48.299Z,6.95
2022-09-12T03:05:15.994Z,6.35
2022-09-12T03:06:43.597Z,7.28
2022-09-12T03:08:07.846Z,7.03
2022-09-12T03:09:36.654Z,5.90
2022-09-12T03:11:03.792Z,5.82
2022-09-12T03:12:27.628Z,6.85
2022-09-12T03:13:44.560Z,7.30
2022-09-12T03:15:19.489Z,7.03
2022-09-12T03:16:52.213Z,6.07
2022-09-12T03:18:06.489Z,6.60
2022-09-12T03:19:32.952Z,6.38
2022-09-12T03:21:04.231Z,7.32
2022-09-12T03:22:23.739Z,5.97
2022-09-12T03:24:01.459Z,7.07
2022-09-12T03:25:06.142Z,6.57
2022-09-12T03:26:16.010Z,6.57
2022-09-12T03:27:26.222Z,8.10
2022-09-12T03:28:28.743Z,9.20
2022-09-12T03:29:31.584Z,6.43
2022-09-12T03:30:41.847Z,6.85
2022-09-12T03:31:57.799Z,7.25
2022-09-12T03:32:59.773Z,6.80
2022-09-12T03:34:01.262Z,6.22
2022-09-12T03:35:04.234Z,6.60
2022-09-12T03:37:07.555Z,5.88
2022-09-12T03:38:10.088Z,5.80
2022-09-12T03:39:11.563Z,6.32
2022-09-12T03:40:13.255Z,6.00
2022-09-12T03:41:14.853Z,5.57
2022-09-12T03:42:16.445Z,6.10
2022-09-12T03:43:18.244Z,5.60
2022-09-12T03:44:20.384Z,5.85
2022-09-12T03:45:22.259Z,7.38
2022-09-12T03:46:23.806Z,7.65
2022-09-12T03:47:25.603Z,7.20
2022-09-12T03:48:27.119Z,6.78
2022-09-12T03:49:28.578Z,6.50
2022-09-12T03:50:30.099Z,7.45
2022-09-12T03:51:31.537Z,6.90
2022-09-12T03:52:33.730Z,5.82
2022-09-12T03:53:35.722Z,5.63
2022-09-12T03:54:37.168Z,7.05
2022-09-12T03:55:39.432Z,5.60
2022-09-12T03:56:41.591Z,6.28
2022-09-12T03:57:44.302Z,6.78
2022-09-12T03:58:45.875Z,5.50
2022-09-12T03:59:49.639Z,6.35
2022-09-12T04:00:51.232Z,7.07
2022-09-12T04:01:52.698Z,6.55
2022-09-12T04:02:56.674Z,8.43
2022-09-12T04:04:00.900Z,5.63
2022-09-12T04:05:02.835Z,6.68
2022-09-12T04:06:04.835Z,11.27
2022-09-12T04:07:06.410Z,6.13
2022-09-12T04:08:08.231Z,6.25
2022-09-12T04:09:09.748Z,6.32
2022-09-12T04:10:11.283Z,5.70
2022-09-12T04:11:14.699Z,7.65
2022-09-12T04:12:16.224Z,6.18
2022-09-12T04:13:18.000Z,6.10
2022-09-12T04:14:19.428Z,6.78
2022-09-12T04:15:20.913Z,6.53
2022-09-12T04:16:22.559Z,5.95
2022-09-12T04:17:24.147Z,6.07
2022-09-12T04:18:26.269Z,5.60
2022-09-12T04:19:27.948Z,5.88
2022-09-12T04:20:29.613Z,5.93
2022-09-12T04:21:31.358Z,6.75
2022-09-12T04:22:33.374Z,6.10
2022-09-12T04:23:35.369Z,6.63
2022-09-12T04:24:36.860Z,8.07
2022-09-12T04:25:38.295Z,7.20
2022-09-12T04:26:39.770Z,6.90
2022-09-12T04:27:41.585Z,6.47
2022-09-12T04:28:43.897Z,6.18
2022-09-12T04:29:45.445Z,6.88
2022-09-12T04:30:46.906Z,6.53
2022-09-12T04:31:48.710Z,7.25
2022-09-12T04:32:50.168Z,8.50
2022-09-12T04:33:56.881Z,8.63
2022-09-12T04:34:58.452Z,5.82
2022-09-12T04:36:07.957Z,6.47
2022-09-12T04:37:11.665Z,6.90
2022-09-12T04:38:13.116Z,8.02
2022-09-12T04:39:14.932Z,6.60
2022-09-12T04:40:16.483Z,6.07
2022-09-12T04:41:23.831Z,6.75
2022-09-12T04:42:25.312Z,7.82
2022-09-12T04:43:27.010Z,6.07
2022-09-12T04:44:29.154Z,5.47
2022-09-12T04:45:30.712Z,8.40
2022-09-12T04:46:35.000Z,6.15
2022-09-12T04:47:36.448Z,6.47
2022-09-12T04:48:38.399Z,7.28
2022-09-12T04:49:40.179Z,5.85
2022-09-12T04:50:41.608Z,7.47
2022-09-12T04:51:43.894Z,5.28
2022-09-12T04:52:55.204Z,5.57
2022-09-12T04:54:01.824Z,5.25
2022-09-12T04:55:03.701Z,5.10
2022-09-12T04:56:07.280Z,5.60
2022-09-12T04:57:08.708Z,4.75
2022-09-12T04:58:10.166Z,5.88
2022-09-12T04:59:14.068Z,4.78
2022-09-12T05:00:15.670Z,6.07
2022-09-12T05:01:19.828Z,4.93
2022-09-12T05:02:21.371Z,5.20
2022-09-12T05:03:22.833Z,4.88
2022-09-12T05:04:24.624Z,4.45
2022-09-12T05:05:26.179Z,5.72
2022-09-12T05:06:31.426Z,5.40
2022-09-12T05:07:33.514Z,4.68
2022-09-12T05:08:35.555Z,5.13
2022-09-12T05:09:37.350Z,4.88
2022-09-12T05:10:38.783Z,5.10
2022-09-12T05:13:04.579Z,4.95
2022-09-12T05:14:06.173Z,4.75
2022-09-12T05:15:08.189Z,5.35
2022-09-12T05:16:11.814Z,4.78
2022-09-12T05:17:13.273Z,4.80
2022-09-12T05:18:14.677Z,4.45
2022-09-12T05:19:16.183Z,4.20
2022-09-12T05:20:17.930Z,4.50
2022-09-12T05:21:21.476Z,4.38
2022-09-12T05:22:22.920Z,4.72
2022-09-12T05:23:24.816Z,5.25
2022-09-12T05:24:26.733Z,4.68
2022-09-12T05:25:28.484Z,5.75
2022-09-12T05:26:29.976Z,5.93
2022-09-12T05:27:31.439Z,5.25
2022-09-12T05:28:35.661Z,6.07
2022-09-12T05:29:37.075Z,5.35
2022-09-12T05:30:38.854Z,6.00
2022-09-12T05:31:40.337Z,5.15
2022-09-12T05:32:41.783Z,5.88
2022-09-12T05:33:45.340Z,5.47
2022-09-12T05:34:47.395Z,5.43
2022-09-12T05:35:53.117Z,5.55
2022-09-12T05:36:54.524Z,5.35
2022-09-12T05:37:56.141Z,5.57
2022-09-12T05:38:59.688Z,6.10
2022-09-12T05:40:05.133Z,4.63
2022-09-12T05:41:17.060Z,5.20
2022-09-12T05:42:19.733Z,5.38
2022-09-12T05:43:21.261Z,5.25
2022-09-12T05:44:22.684Z,4.82
2022-09-12T05:45:24.140Z,7.10
2022-09-12T05:46:31.775Z,5.72
2022-09-12T05:47:33.219Z,5.43
2022-09-12T05:48:36.886Z,6.47
2022-09-12T05:49:38.467Z,5.35
2022-09-12T05:50:39.912Z,6.30
2022-09-12T05:51:44.253Z,6.25
2022-09-12T05:52:45.967Z,6.07
2022-09-12T05:53:50.893Z,7.28
2022-09-12T05:54:52.358Z,7.72
2022-09-12T05:56:11.253Z,8.07
2022-09-12T05:57:12.698Z,8.00
2022-09-12T05:58:14.727Z,8.73
2022-09-12T05:59:19.347Z,7.45
2022-09-12T06:00:20.992Z,9.13
2022-09-12T06:01:22.798Z,8.52
2022-09-12T06:02:24.247Z,6.93
2022-09-12T06:03:25.720Z,9.25
2022-09-12T06:04:28.067Z,7.75
2022-09-12T06:05:29.528Z,7.57
2022-09-12T06:06:32.707Z,7.47
2022-09-12T06:07:35.705Z,7.10
2022-09-12T06:08:37.524Z,8.55
2022-09-12T06:09:38.990Z,9.68
2022-09-12T06:10:40.404Z,8.85
2022-09-12T06:11:42.459Z,9.10
2022-09-12T06:12:43.928Z,12.85
2022-09-12T06:13:45.449Z,10.85
2022-09-12T06:14:47.678Z,12.80
2022-09-12T06:15:49.066Z,11.55
2022-09-12T06:16:50.893Z,10.52
2022-09-12T06:17:52.458Z,10.60
2022-09-12T06:18:56.518Z,12.52
2022-09-12T06:19:57.928Z,9.38
2022-09-12T06:21:05.397Z,10.80
2022-09-12T06:22:06.906Z,12.85
2022-09-12T06:23:08.349Z,11.90
2022-09-12T06:24:09.890Z,10.30
2022-09-12T06:25:11.311Z,9.98
2022-09-12T06:26:13.489Z,11.00
2022-09-12T06:27:15.358Z,10.60
2022-09-12T06:28:16.918Z,11.85
2022-09-12T06:29:19.329Z,11.85
2022-09-12T06:30:25.306Z,9.38
2022-09-12T06:31:30.007Z,11.43
2022-09-12T06:32:31.770Z,11.60
2022-09-12T06:33:38.058Z,11.50
2022-09-12T06:34:39.560Z,10.52
2022-09-12T06:35:41.400Z,10.38
2022-09-12T06:36:46.217Z,10.55
2022-09-12T06:37:48.382Z,12.07
2022-09-12T06:38:56.179Z,12.20
2022-09-12T06:39:57.702Z,9.70
2022-09-12T06:41:07.138Z,14.10
2022-09-12T06:42:09.018Z,11.50
2022-09-12T06:43:13.735Z,12.48
2022-09-12T06:44:28.989Z,11.00
2022-09-12T06:45:30.455Z,13.02
2022-09-12T06:46:32.301Z,11.45
2022-09-12T06:47:33.707Z,12.75
2022-09-12T06:48:39.605Z,11.02
2022-09-12T06:49:43.095Z,14.55
2022-09-12T06:50:56.144Z,17.73
2022-09-12T06:51:57.928Z,12.60
2022-09-12T06:52:59.368Z,13.23
2022-09-12T06:54:00.997Z,12.85
2022-09-12T06:55:02.472Z,13.93
2022-09-12T06:56:07.440Z,12.57
2022-09-12T06:57:09.299Z,12.85
2022-09-12T06:58:10.910Z,14.10
2022-09-12T06:59:12.700Z,14.82
2022-09-12T07:00:14.479Z,15.13
2022-09-12T07:01:27.719Z,13.93
2022-09-12T07:02:29.187Z,12.88
2022-09-12T07:03:31.052Z,16.77
2022-09-12T07:04:36.691Z,13.50
2022-09-12T07:05:38.124Z,11.88
2022-09-12T07:06:41.963Z,13.07
2022-09-12T07:07:43.415Z,13.77
2022-09-12T07:08:45.571Z,12.85
2022-09-12T07:09:47.052Z,13.13
2022-09-12T07:10:48.593Z,12.95
2022-09-12T07:11:50.356Z,13.82
2022-09-12T07:12:54.786Z,12.48
2022-09-12T07:13:57.814Z,14.20
2022-09-12T07:14:59.244Z,12.23
2022-09-12T07:16:05.508Z,12.65
2022-09-12T07:17:07.786Z,13.25
2022-09-12T07:18:10.907Z,15.40
2022-09-12T07:19:12.589Z,14.20
2022-09-12T07:20:14.090Z,12.82
2022-09-12T07:21:15.584Z,13.02
2022-09-12T07:22:17.343Z,12.80
2022-09-12T07:23:19.090Z,12.23
2022-09-12T07:24:20.563Z,11.07
2022-09-12T07:25:21.976Z,12.60
2022-09-12T07:26:25.034Z,12.27
2022-09-12T07:27:26.479Z,13.02
2022-09-12T07:28:30.602Z,15.13
2022-09-12T07:29:37.083Z,12.52
2022-09-12T07:30:39.160Z,11.90
2022-09-12T07:31:41.000Z,13.68
2022-09-12T07:32:42.425Z,10.32
2022-09-12T07:33:44.800Z,12.80
2022-09-12T07:34:46.346Z,11.20
2022-09-12T07:35:48.193Z,10.48
2022-09-12T07:36:49.967Z,15.27
2022-09-12T07:37:51.415Z,10.38
2022-09-12T07:38:57.698Z,12.52
2022-09-12T07:39:59.869Z,10.23
2022-09-12T07:41:04.749Z,10.82
2022-09-12T07:42:07.336Z,12.02
2022-09-12T07:43:09.024Z,11.52
2022-09-12T07:44:10.527Z,13.80
2022-09-12T07:45:12.971Z,12.52
2022-09-12T07:46:14.974Z,11.55
2022-09-12T07:47:16.808Z,10.50
2022-09-12T07:48:18.222Z,9.85
2022-09-12T07:49:22.595Z,9.82
2022-09-12T07:50:24.305Z,10.05
2022-09-12T07:51:27.643Z,9.73
2022-09-12T07:52:29.467Z,11.13
2022-09-12T07:53:33.167Z,11.05
2022-09-12T07:54:34.674Z,10.75
2022-09-12T07:55:36.100Z,12.65
2022-09-12T07:56:39.380Z,12.02
2022-09-12T07:57:41.029Z,12.05
2022-09-12T07:58:43.920Z,13.13
2022-09-12T08:00:55.960Z,10.45
2022-09-12T08:01:57.861Z,12.00
2022-09-12T08:02:59.356Z,9.82
2022-09-12T08:04:01.629Z,10.30
2022-09-12T08:05:03.263Z,11.18
2022-09-12T08:06:16.416Z,12.15
2022-09-12T08:07:19.490Z,11.18
2022-09-12T08:08:21.209Z,12.90
2022-09-12T08:09:22.638Z,13.30
2022-09-12T08:10:24.131Z,12.07
2022-09-12T08:11:28.413Z,11.88
2022-09-12T08:12:31.477Z,15.07
2022-09-12T08:13:34.533Z,11.77
2022-09-12T08:14:35.969Z,11.15
2022-09-12T08:15:37.458Z,10.80
2022-09-12T08:16:39.327Z,10.65
2022-09-12T08:17:41.426Z,10.73
2022-09-12T08:18:42.863Z,10.38
2022-09-12T08:19:44.970Z,11.18
2022-09-12T08:20:46.461Z,9.57
2022-09-12T08:21:48.311Z,10.93
2022-09-12T08:22:49.781Z,11.18
2022-09-12T08:23:59.096Z,12.02
2022-09-12T08:25:00.548Z,9.85
2022-09-12T08:26:06.132Z,10.95
2022-09-12T08:27:08.606Z,10.80
2022-09-12T08:28:10.056Z,9.65
2022-09-12T08:29:11.913Z,10.05
2022-09-12T08:30:14.181Z,11.05
2022-09-12T08:31:18.588Z,11.52
2022-09-12T08:32:20.541Z,10.35
2022-09-12T08:33:22.219Z,11.48
2022-09-12T08:34:25.095Z,9.60
2022-09-12T08:36:29.636Z,12.98
2022-09-12T08:37:31.770Z,12.80
2022-09-12T08:38:34.567Z,11.25
2022-09-12T08:39:36.056Z,14.10
2022-09-12T08:40:59.296Z,11.25
2022-09-12T08:42:06.844Z,12.15
2022-09-12T08:43:27.690Z,11.73
2022-09-12T08:44:32.214Z,10.80
2022-09-12T08:45:38.754Z,10.43
2022-09-12T08:46:47.018Z,11.60
2022-09-12T08:47:49.580Z,10.35
2022-09-12T08:48:51.892Z,12.73
2022-09-12T08:50:04.793Z,12.00
2022-09-12T08:51:12.291Z,12.43
2022-09-12T08:52:26.363Z,11.70
2022-09-12T08:53:30.183Z,11.13
2022-09-12T08:54:33.016Z,11.85
2022-09-12T08:56:41.611Z,11.05
2022-09-12T08:57:43.352Z,11.25
2022-09-12T08:58:46.103Z,11.65
2022-09-12T08:59:48.424Z,10.65
2022-09-12T09:01:01.803Z,9.20
2022-09-12T09:02:16.277Z,11.35
2022-09-12T09:03:45.046Z,9.75
2022-09-12T09:05:01.526Z,11.50
2022-09-12T09:06:18.488Z,11.77
2022-09-12T09:07:23.633Z,10.57
2022-09-12T09:08:27.794Z,9.95
2022-09-12T09:09:53.768Z,10.98
2022-09-12T09:11:26.997Z,9.48
2022-09-12T09:13:03.123Z,10.07
2022-09-12T09:14:49.222Z,10.80
2022-09-12T09:16:08.103Z,11.13
2022-09-12T09:17:20.197Z,12.25
2022-09-12T09:18:29.008Z,10.90
2022-09-12T09:19:50.805Z,10.35
2022-09-12T09:21:22.007Z,10.00
2022-09-12T09:22:37.135Z,12.43
2022-09-12T09:24:53.296Z,11.57
2022-09-12T09:26:14.648Z,10.43
2022-09-12T09:27:40.852Z,10.90
2022-09-12T09:28:50.224Z,9.80
2022-09-12T09:29:55.704Z,9.10
2022-09-12T09:30:57.894Z,8.50
2022-09-12T09:32:01.114Z,8.35
2022-09-12T09:33:05.125Z,8.35
2022-09-12T09:34:15.505Z,11.55
2022-09-12T09:35:21.906Z,9.13
2022-09-12T09:36:38.914Z,10.25
2022-09-12T09:37:44.725Z,8.48
2022-09-12T09:38:54.196Z,9.02
2022-09-12T09:40:20.360Z,9.63
2022-09-12T09:42:01.512Z,7.85
2022-09-12T09:43:12.289Z,8.90
2022-09-12T09:44:14.171Z,6.93
2022-09-12T09:45:19.643Z,8.23
2022-09-12T09:46:21.102Z,6.68
2022-09-12T09:47:22.768Z,9.05
2022-09-12T09:48:29.769Z,10.27
2022-09-12T09:49:34.419Z,7.53
2022-09-12T09:50:36.992Z,7.15
2022-09-12T09:51:40.749Z,6.97
2022-09-12T09:52:43.505Z,8.13
2022-09-12T09:54:01.492Z,6.78
2022-09-12T09:55:03.480Z,8.52
2022-09-12T09:56:15.365Z,7.93
2022-09-12T09:57:35.105Z,6.38
2022-09-12T09:58:37.132Z,6.00
2022-09-12T09:59:38.576Z,6.22
2022-09-12T10:00:40.670Z,6.32
2022-09-12T10:01:54.847Z,5.82
2022-09-12T10:03:14.022Z,7.07
2022-09-12T10:04:20.304Z,6.75
2022-09-12T10:05:22.234Z,6.25
2022-09-12T10:06:30.870Z,7.03
2022-09-12T10:07:32.442Z,5.90
2022-09-12T10:08:36.616Z,6.47
2022-09-12T10:09:38.719Z,7.35
2022-09-12T10:10:53.610Z,6.53
2022-09-12T10:11:57.322Z,7.75
2022-09-12T10:13:20.917Z,6.55
2022-09-12T10:14:32.153Z,7.90
2022-09-12T10:15:34.682Z,6.22
2022-09-12T10:16:52.678Z,8.73
2022-09-12T10:17:58.796Z,7.18
2022-09-12T10:19:02.953Z,7.07
2022-09-12T10:20:20.568Z,7.63
2022-09-12T10:21:32.182Z,9.63
2022-09-12T10:22:33.753Z,7.40
2022-09-12T10:23:37.587Z,8.65
2022-09-12T10:24:58.622Z,7.13
2022-09-12T10:26:03.813Z,7.63
2022-09-12T10:27:20.529Z,7.53
2022-09-12T10:28:33.146Z,8.05
2022-09-12T10:29:59.299Z,8.02
2022-09-12T10:31:02.635Z,7.57
2022-09-12T10:32:08.267Z,7.40
2022-09-12T10:33:12.833Z,8.02
2022-09-12T10:34:44.679Z,7.18
2022-09-12T10:35:49.868Z,5.90
2022-09-12T10:37:00.401Z,6.63
2022-09-12T10:38:06.274Z,6.82
2022-09-12T10:39:18.615Z,5.80
2022-09-12T10:40:28.743Z,6.32
2022-09-12T10:41:41.383Z,7.65
2022-09-12T10:42:50.291Z,7.50
2022-09-12T10:44:54.689Z,7.75
2022-09-12T10:45:58.876Z,7.78
2022-09-12T10:47:19.973Z,10.43
2022-09-12T10:48:29.363Z,6.13
2022-09-12T10:49:31.827Z,7.30
2022-09-12T10:50:39.367Z,6.32
2022-09-12T10:51:41.119Z,5.93
2022-09-12T10:52:42.543Z,6.70
2022-09-12T10:53:46.798Z,8.15
2022-09-12T10:54:48.945Z,6.85
2022-09-12T10:56:03.287Z,8.60
2022-09-12T10:57:21.223Z,6.63
2022-09-12T10:58:53.717Z,7.00
2022-09-12T11:00:19.850Z,7.18
2022-09-12T11:01:36.898Z,6.18
2022-09-12T11:03:05.329Z,6.63
2022-09-12T11:04:26.520Z,6.50
2022-09-12T11:07:07.085Z,6.75
2022-09-12T11:08:21.081Z,6.88
2022-09-12T11:09:46.308Z,6.75
2022-09-12T11:10:54.734Z,5.20
2022-09-12T11:12:19.993Z,6.95
2022-09-12T11:13:45.062Z,5.82
2022-09-12T11:14:55.713Z,7.05
2022-09-12T11:16:11.817Z,5.43
2022-09-12T11:17:34.561Z,6.95
2022-09-12T11:19:07.315Z,5.95
2022-09-12T11:20:33.109Z,5.97
2022-09-12T11:22:02.440Z,6.70
2022-09-12T11:23:34.759Z,6.85
2022-09-12T11:25:03.871Z,5.88
2022-09-12T11:26:19.419Z,5.82
2022-09-12T11:27:27.863Z,5.63
2022-09-12T11:28:35.843Z,6.22
2022-09-12T11:29:59.854Z,5.80
2022-09-12T11:31:23.901Z,6.40
2022-09-12T11:32:52.243Z,6.07
2022-09-12T11:33:56.784Z,6.13
2022-09-12T11:35:04.383Z,5.20
2022-09-12T11:36:16.112Z,5.85
2022-09-12T11:37:45.359Z,6.35
2022-09-12T11:39:02.199Z,8.35
2022-09-12T11:40:23.439Z,5.93
2022-09-12T11:41:34.866Z,5.88
2022-09-12T11:42:39.765Z,7.18
2022-09-12T11:44:33.513Z,6.35
2022-09-12T11:45:41.708Z,7.32
2022-09-12T11:46:47.620Z,7.00
2022-09-12T11:47:57.796Z,6.10
2022-09-12T11:49:14.375Z,5.88
2022-09-12T11:50:27.039Z,8.40
2022-09-12T11:51:37.136Z,6.07
2022-09-12T11:52:40.612Z,5.90
2022-09-12T11:53:43.997Z,5.95
2022-09-12T11:54:53.911Z,7.95
2022-09-12T11:56:04.600Z,7.53
2022-09-12T11:57:19.830Z,6.13
2022-09-12T11:58:26.658Z,8.10
2022-09-12T11:59:39.424Z,7.38
2022-09-12T12:00:47.841Z,6.93
2022-09-12T12:01:55.171Z,7.88
2022-09-12T12:03:20.512Z,7.20
2022-09-12T12:04:28.741Z,7.32
2022-09-12T12:05:54.672Z,6.78
2022-09-12T12:07:07.343Z,5.90
2022-09-12T12:08:10.839Z,7.47
2022-09-12T12:09:14.319Z,7.38
2022-09-12T12:10:24.644Z,6.80
2022-09-12T12:11:43.615Z,7.80
2022-09-12T12:12:45.465Z,6.75
2022-09-12T12:14:12.774Z,5.72
2022-09-12T12:16:29.866Z,6.13
2022-09-12T12:17:33.340Z,7.22
2022-09-12T12:18:38.978Z,6.18
2022-09-12T12:19:40.606Z,6.32
2022-09-12T12:20:42.894Z,5.80
2022-09-12T12:21:45.339Z,6.88
2022-09-12T12:22:56.219Z,6.55
2022-09-12T12:24:11.736Z,6.13
2022-09-12T12:25:13.089Z,5.95
2022-09-12T12:26:42.701Z,6.13
2022-09-12T12:27:44.162Z,8.15
2022-09-12T12:28:50.545Z,6.03
2022-09-12T12:29:52.078Z,5.82
2022-09-12T12:30:53.871Z,5.78
2022-09-12T12:32:04.273Z,5.65
2022-09-12T12:33:25.647Z,6.05
2022-09-12T12:34:29.246Z,7.30
2022-09-12T12:35:37.993Z,6.57
2022-09-12T12:36:41.313Z,6.03
2022-09-12T12:37:42.697Z,6.60
2022-09-12T12:38:44.441Z,5.88
2022-09-12T12:39:47.947Z,6.60
2022-09-12T12:40:50.819Z,6.97
2022-09-12T12:41:52.260Z,6.05
2022-09-12T12:43:02.589Z,6.60
2022-09-12T12:44:42.772Z,6.93
2022-09-12T12:45:48.498Z,6.43
2022-09-12T12:47:19.778Z,7.95
2022-09-12T12:48:22.238Z,5.68
2022-09-12T12:49:28.438Z,6.57
2022-09-12T12:50:31.775Z,6.28
2022-09-12T12:51:36.131Z,7.55
2022-09-12T12:52:52.226Z,5.72
2022-09-12T12:53:55.240Z,6.20
2022-09-12T12:55:04.134Z,6.25
2022-09-12T12:57:13.598Z,7.20
2022-09-12T12:58:41.185Z,6.50
2022-09-12T13:00:00.234Z,6.75
2022-09-12T13:01:22.832Z,6.28
2022-09-12T13:02:31.256Z,6.53
2022-09-12T13:03:34.368Z,5.90
2022-09-12T13:04:36.003Z,5.47
2022-09-12T13:05:49.881Z,6.75
2022-09-12T13:07:01.088Z,6.45
2022-09-12T13:08:30.278Z,6.03
2022-09-12T13:09:39.720Z,7.22
2022-09-12T13:10:50.423Z,6.40
2022-09-12T13:12:11.259Z,6.03
2022-09-12T13:13:25.783Z,13.00
2022-09-12T13:14:42.558Z,15.48
2022-09-12T13:15:50.195Z,25.75
2022-09-12T13:16:59.902Z,18.58
2022-09-12T13:18:05.610Z,10.82
2022-09-12T13:19:18.103Z,10.52
2022-09-12T13:20:28.317Z,8.18
2022-09-12T13:21:30.590Z,6.70
2022-09-12T13:22:48.054Z,7.10
2022-09-12T13:24:13.610Z,5.50
2022-09-12T13:25:36.498Z,6.75
2022-09-12T13:26:43.875Z,6.47
2022-09-12T13:27:59.722Z,6.13
2022-09-12T13:29:17.391Z,7.35
2022-09-12T13:30:18.811Z,6.72
2022-09-12T13:31:26.683Z,5.40
2022-09-12T13:32:28.509Z,6.50
2022-09-12T13:33:36.335Z,6.38
2022-09-12T13:34:45.815Z,6.68
2022-09-12T13:36:14.229Z,6.30
2022-09-12T13:37:32.062Z,6.30
2022-09-12T13:38:43.177Z,6.25
2022-09-12T13:39:50.199Z,5.35
2022-09-12T13:40:56.067Z,6.18
2022-09-12T13:42:28.361Z,6.45
2022-09-12T13:43:41.294Z,6.07
2022-09-12T13:44:50.187Z,6.30
2022-09-12T13:46:58.589Z,6.22
2022-09-12T13:48:05.253Z,6.93
2022-09-12T13:49:26.339Z,6.50
2022-09-12T13:50:52.861Z,6.63
2022-09-12T13:52:00.906Z,6.20
2022-09-12T13:53:07.421Z,6.78
2022-09-12T13:54:21.422Z,5.80
2022-09-12T13:55:43.424Z,7.22
2022-09-12T13:56:49.731Z,6.43
2022-09-12T13:58:01.601Z,5.80
2022-09-12T13:59:03.105Z,5.82
2022-09-12T14:00:12.663Z,5.70
2022-09-12T14:01:19.038Z,5.55
2022-09-12T14:02:26.141Z,5.85
2022-09-12T14:03:49.794Z,5.65
2022-09-12T14:05:12.371Z,6.35
2022-09-12T14:06:16.950Z,13.70
2022-09-12T14:07:22.512Z,11.15
2022-09-12T14:08:25.975Z,6.85
2022-09-12T14:09:39.749Z,6.22
2022-09-12T14:10:47.698Z,7.22
2022-09-12T14:11:53.726Z,5.90
2022-09-12T14:12:57.325Z,5.90
2022-09-12T14:14:17.191Z,7.75
2022-09-12T14:15:25.977Z,6.10
2022-09-12T14:16:29.142Z,5.85
2022-09-12T14:17:31.497Z,6.07
2022-09-12T14:18:37.143Z,6.30
2022-09-12T14:19:38.724Z,6.22
2022-09-12T14:20:41.980Z,5.63
2022-09-12T14:21:43.561Z,6.18
2022-09-12T14:22:49.318Z,6.28
2022-09-12T14:23:53.197Z,6.40
2022-09-12T14:24:55.903Z,6.43
2022-09-12T14:26:00.125Z,6.82
2022-09-12T14:27:01.887Z,6.40
2022-09-12T14:28:04.580Z,6.22
2022-09-12T14:29:07.647Z,5.72
2022-09-12T14:30:32.810Z,6.70
2022-09-12T14:31:37.230Z,5.70
2022-09-12T14:32:38.705Z,6.05
2022-09-12T14:33:48.942Z,5.82
2022-09-12T14:35:12.500Z,6.25
2022-09-12T14:36:24.272Z,5.30
2022-09-12T14:37:25.717Z,5.78
2022-09-12T14:38:36.529Z,5.78
2022-09-12T14:39:42.910Z,6.85
2022-09-12T14:40:49.624Z,6.90
2022-09-12T14:42:00.104Z,6.25
2022-09-12T14:43:01.566Z,6.70
2022-09-12T14:44:10.196Z,5.55
2022-09-12T14:45:18.497Z,6.30
2022-09-12T14:46:28.456Z,6.20
2022-09-12T14:47:41.065Z,11.35
2022-09-12T14:48:46.890Z,12.80
2022-09-12T14:49:51.679Z,13.50
2022-09-12T14:50:53.843Z,22.90
2022-09-12T14:52:04.941Z,45.85
2022-09-12T14:53:16.296Z,19.27
2022-09-12T14:54:44.793Z,6.75
2022-09-12T14:56:09.196Z,6.43
2022-09-12T14:57:33.188Z,5.70
2022-09-12T14:58:35.692Z,6.78
2022-09-12T14:59:39.991Z,6.00
2022-09-12T15:00:56.842Z,6.28
2022-09-12T15:02:13.639Z,8.20
2022-09-12T15:03:25.374Z,6.20
2022-09-12T15:05:02.990Z,5.85
2022-09-12T15:06:09.319Z,5.38
2022-09-12T15:07:30.066Z,5.32
2022-09-12T15:08:32.194Z,7.45
2022-09-12T15:09:33.936Z,6.40
2022-09-12T15:10:37.819Z,5.60
2022-09-12T15:11:39.675Z,6.82
2022-09-12T15:12:41.117Z,6.07
2022-09-12T15:13:42.662Z,5.97